createdAt,value
2023-02-11T00:06:26.639Z,74.05
2023-02-11T00:17:31.309Z,74.24
2023-02-11T00:28:46.999Z,74.08
2023-02-11T00:40:01.582Z,74.51
2023-02-11T00:51:26.329Z,75.15
2023-02-11T01:02:44.177Z,75.18
2023-02-11T01:13:48.750Z,74.76
2023-02-11T01:24:56.288Z,75.53
2023-02-11T01:36:01.160Z,75.52
2023-02-11T01:47:25.995Z,75.31
2023-02-11T01:58:10.304Z,75.45
2023-02-11T02:09:17.490Z,74.97
2023-02-11T02:20:39.972Z,75.08
2023-02-11T02:31:47.965Z,75.71
2023-02-11T02:43:12.830Z,75.45
2023-02-11T02:54:28.920Z,75.76
2023-02-11T03:05:42.435Z,76.04
2023-02-11T03:16:52.182Z,76.72
2023-02-11T03:28:22.410Z,76.46
2023-02-11T03:39:22.735Z,76.90
2023-02-11T03:50:29.898Z,77.14
2023-02-11T04:01:44.449Z,76.80
2023-02-11T04:12:31.508Z,77.42
2023-02-11T04:23:56.603Z,77.56
2023-02-11T04:35:21.225Z,78.18
2023-02-11T04:46:25.788Z,78.19
2023-02-11T04:57:45.104Z,77.97
2023-02-11T05:09:08.506Z,77.59
2023-02-11T05:20:33.153Z,77.51
2023-02-11T05:31:20.534Z,78.63
2023-02-11T05:42:25.146Z,80.20
2023-02-11T05:53:29.746Z,79.88
2023-02-11T06:04:44.547Z,79.59
2023-02-11T06:15:53.904Z,79.02
2023-02-11T06:26:43.614Z,78.59
2023-02-11T06:37:19.054Z,78.47
2023-02-11T06:48:13.104Z,78.14
2023-02-11T06:59:17.780Z,77.91
2023-02-11T07:10:41.795Z,76.95
2023-02-11T07:21:57.447Z,75.93
2023-02-11T07:32:30.720Z,75.80
2023-02-11T07:43:55.534Z,74.19
2023-02-11T07:54:46.318Z,73.05
2023-02-11T08:05:38.692Z,71.91
2023-02-11T08:16:04.960Z,70.41
2023-02-11T08:27:30.007Z,69.97
2023-02-11T08:38:24.626Z,69.69
2023-02-11T08:49:43.068Z,69.20
2023-02-11T09:00:19.197Z,69.03
2023-02-11T09:10:53.656Z,68.48
2023-02-11T09:21:42.647Z,68.18
2023-02-11T09:32:25.680Z,68.06
2023-02-11T09:43:05.598Z,67.68
2023-02-11T09:53:44.389Z,67.13
2023-02-11T10:04:49.233Z,66.07
2023-02-11T10:15:33.542Z,64.62
2023-02-11T10:25:51.130Z,63.16
2023-02-11T10:36:45.781Z,62.48
2023-02-11T10:47:17.615Z,62.22
2023-02-11T10:58:06.171Z,61.74
2023-02-11T11:08:11.048Z,62.14
2023-02-11T11:18:55.080Z,60.59
2023-02-11T11:29:16.491Z,60.05
2023-02-11T11:40:12.123Z,60.21
2023-02-11T11:50:57.784Z,59.97
2023-02-11T12:02:08.596Z,60.07
2023-02-11T12:13:39.051Z,59.27
2023-02-11T12:25:19.074Z,58.92
2023-02-11T12:36:27.280Z,58.47
2023-02-11T12:47:45.290Z,58.34
2023-02-11T12:58:29.659Z,59.07
2023-02-11T13:09:22.453Z,59.75
2023-02-11T13:20:02.421Z,59.86
2023-02-11T13:30:57.922Z,60.58
2023-02-11T13:41:44.347Z,61.50
2023-02-11T13:53:03.041Z,62.29
2023-02-11T14:04:29.588Z,63.44
2023-02-11T14:15:26.665Z,64.06
2023-02-11T14:26:29.819Z,64.64
2023-02-11T14:37:50.775Z,65.69
2023-02-11T14:48:51.384Z,66.44
2023-02-11T15:00:18.681Z,66.73
2023-02-11T15:11:44.723Z,67.06
2023-02-11T15:23:10.915Z,67.82
2023-02-11T15:34:05.011Z,68.48
2023-02-11T15:45:32.508Z,69.08
2023-02-11T15:56:58.337Z,70.29
2023-02-11T16:08:19.753Z,71.16
2023-02-11T16:19:47.167Z,72.48
2023-02-11T16:31:18.809Z,74.09
2023-02-11T16:42:19.209Z,75.85
2023-02-11T16:53:45.256Z,77.20
2023-02-11T17:04:50.331Z,77.99
2023-02-11T17:16:09.548Z,78.51
2023-02-11T17:27:35.889Z,78.75
2023-02-11T17:39:02.171Z,79.20
2023-02-11T17:50:17.845Z,79.77
2023-02-11T18:01:43.795Z,79.48
2023-02-11T18:12:55.037Z,79.89
2023-02-11T18:24:13.196Z,80.19
2023-02-11T18:35:39.169Z,80.57
2023-02-11T18:46:46.157Z,80.81
2023-02-11T18:58:14.850Z,81.07
2023-02-11T19:09:41.504Z,81.05
2023-02-11T19:21:09.874Z,81.27
2023-02-11T19:32:29.285Z,81.31
2023-02-11T19:43:46.852Z,81.28
2023-02-11T19:55:13.520Z,81.50
2023-02-11T20:06:49.595Z,81.95
2023-02-11T20:18:17.129Z,82.04
2023-02-11T20:29:27.582Z,82.30
2023-02-11T20:40:56.938Z,83.05
2023-02-11T20:52:23.544Z,83.74
2023-02-11T21:03:56.018Z,84.15
2023-02-11T21:15:23.780Z,84.60
2023-02-11T21:26:56.411Z,85.02
2023-02-11T21:37:54.946Z,85.33
2023-02-11T21:49:08.967Z,85.51
2023-02-11T22:00:34.084Z,85.89
2023-02-11T22:12:04.814Z,86.05
2023-02-11T22:23:19.694Z,86.34
2023-02-11T22:34:44.522Z,86.29
2023-02-11T22:46:09.545Z,86.19
2023-02-11T22:57:34.241Z,86.03
2023-02-11T23:08:59.160Z,85.92
2023-02-11T23:20:23.870Z,85.89
2023-02-11T23:32:01.323Z,85.85
2023-02-11T23:43:26.838Z,86.07
2023-02-11T23:54:38.511Z,85.94
